Clyde Hill, Washington
Current Conditions -  °F | °C
As of 7:53 PM on Sunday 25 Jan 2015 (Local Time) from KBFI Reporting Station
Clear Clear  
Wind Chill: 52°   Ceiling: Unl
Heat Index: 52°   Visibility: 10mi
Dew Point: 47°   Wind: 3mph
Humidity: 83%   Direction: 330°NNW
Pressure: 30.03"   Gusts: NA
Location:  47.6186°N, 122.204°W
Report Text: KBFI 260353Z 33003KT 10SM CLR 11/08 A3003 RMK AO2 SLP169 T01110083
Loading
Personal Weather Stations






























Interactive Weather Map New forecast layout! Learn more

10-Day Weather Forecast

Advertisements
Track Severe Weather on mobile